sensor_id;sensor_type;location;lat;lon;timestamp;P1;durP1;ratioP1;P2;durP2;ratioP2
13040;SDS011;6587;42.728;23.288;2022-12-01T00:02:21;1.80;;;1.30;;
13040;SDS011;6587;42.728;23.288;2022-12-01T00:04:50;1.47;;;1.37;;
13040;SDS011;6587;42.728;23.288;2022-12-01T00:07:17;1.20;;;1.10;;
13040;SDS011;6587;42.728;23.288;2022-12-01T00:09:45;1.13;;;1.00;;
13040;SDS011;6587;42.728;23.288;2022-12-01T00:12:30;0.90;;;0.90;;
13040;SDS011;6587;42.728;23.288;2022-12-01T00:14:57;0.80;;;0.80;;
13040;SDS011;6587;42.728;23.288;2022-12-01T00:17:26;1.20;;;1.10;;
13040;SDS011;6587;42.728;23.288;2022-12-01T00:19:57;0.90;;;0.90;;
13040;SDS011;6587;42.728;23.288;2022-12-01T00:22:23;2.20;;;0.90;;
13040;SDS011;6587;42.728;23.288;2022-12-01T00:24:50;1.10;;;1.00;;
13040;SDS011;6587;42.728;23.288;2022-12-01T00:27:17;0.90;;;0.90;;
13040;SDS011;6587;42.728;23.288;2022-12-01T00:29:44;0.80;;;0.80;;
13040;SDS011;6587;42.728;23.288;2022-12-01T00:32:12;0.80;;;0.80;;
13040;SDS011;6587;42.728;23.288;2022-12-01T00:34:39;0.80;;;0.80;;
13040;SDS011;6587;42.728;23.288;2022-12-01T00:37:07;0.60;;;0.60;;
13040;SDS011;6587;42.728;23.288;2022-12-01T00:39:34;0.70;;;0.70;;
13040;SDS011;6587;42.728;23.288;2022-12-01T00:42:01;0.80;;;0.80;;
13040;SDS011;6587;42.728;23.288;2022-12-01T00:44:28;0.63;;;0.63;;
13040;SDS011;6587;42.728;23.288;2022-12-01T00:46:55;0.70;;;0.70;;
13040;SDS011;6587;42.728;23.288;2022-12-01T00:49:22;0.80;;;0.80;;
13040;SDS011;6587;42.728;23.288;2022-12-01T00:51:50;0.70;;;0.70;;
13040;SDS011;6587;42.728;23.288;2022-12-01T00:54:18;0.80;;;0.70;;
13040;SDS011;6587;42.728;23.288;2022-12-01T00:56:45;0.87;;;0.87;;
13040;SDS011;6587;42.728;23.288;2022-12-01T00:59:12;1.00;;;1.00;;
13040;SDS011;6587;42.728;23.288;2022-12-01T01:01:39;1.60;;;1.50;;
13040;SDS011;6587;42.728;23.288;2022-12-01T01:04:06;0.90;;;0.90;;
13040;SDS011;6587;42.728;23.288;2022-12-01T01:06:33;0.70;;;0.70;;
13040;SDS011;6587;42.728;23.288;2022-12-01T01:09:00;0.60;;;0.60;;
13040;SDS011;6587;42.728;23.288;2022-12-01T01:11:29;0.50;;;0.50;;
13040;SDS011;6587;42.728;23.288;2022-12-01T01:13:57;0.50;;;0.50;;
13040;SDS011;6587;42.728;23.288;2022-12-01T01:16:25;0.50;;;0.50;;
13040;SDS011;6587;42.728;23.288;2022-12-01T01:18:52;0.50;;;0.50;;
13040;SDS011;6587;42.728;23.288;2022-12-01T01:21:20;0.70;;;0.70;;
13040;SDS011;6587;42.728;23.288;2022-12-01T01:23:52;0.60;;;0.60;;
13040;SDS011;6587;42.728;23.288;2022-12-01T01:26:21;0.53;;;0.53;;
13040;SDS011;6587;42.728;23.288;2022-12-01T01:28:50;0.53;;;0.53;;
13040;SDS011;6587;42.728;23.288;2022-12-01T01:31:19;0.70;;;0.70;;
13040;SDS011;6587;42.728;23.288;2022-12-01T01:33:48;3.13;;;0.70;;
13040;SDS011;6587;42.728;23.288;2022-12-01T01:36:15;0.83;;;0.70;;
13040;SDS011;6587;42.728;23.288;2022-12-01T01:38:43;0.77;;;0.70;;
13040;SDS011;6587;42.728;23.288;2022-12-01T01:41:11;1.23;;;0.70;;
13040;SDS011;6587;42.728;23.288;2022-12-01T01:43:39;0.53;;;0.50;;
13040;SDS011;6587;42.728;23.288;2022-12-01T01:46:10;0.50;;;0.50;;
13040;SDS011;6587;42.728;23.288;2022-12-01T01:48:39;0.60;;;0.60;;
13040;SDS011;6587;42.728;23.288;2022-12-01T01:51:09;0.50;;;0.50;;
13040;SDS011;6587;42.728;23.288;2022-12-01T01:53:37;1.20;;;0.60;;
13040;SDS011;6587;42.728;23.288;2022-12-01T01:56:04;1.03;;;0.53;;
13040;SDS011;6587;42.728;23.288;2022-12-01T01:58:32;0.40;;;0.40;;
13040;SDS011;6587;42.728;23.288;2022-12-01T02:01:01;0.60;;;0.60;;
13040;SDS011;6587;42.728;23.288;2022-12-01T02:03:30;0.50;;;0.50;;
13040;SDS011;6587;42.728;23.288;2022-12-01T02:05:58;0.50;;;0.50;;
13040;SDS011;6587;42.728;23.288;2022-12-01T02:08:25;0.60;;;0.60;;
13040;SDS011;6587;42.728;23.288;2022-12-01T02:10:58;0.93;;;0.50;;
13040;SDS011;6587;42.728;23.288;2022-12-01T02:13:40;0.50;;;0.50;;
13040;SDS011;6587;42.728;23.288;2022-12-01T02:16:17;0.50;;;0.50;;
13040;SDS011;6587;42.728;23.288;2022-12-01T02:18:54;0.57;;;0.57;;
13040;SDS011;6587;42.728;23.288;2022-12-01T02:21:38;0.60;;;0.60;;
13040;SDS011;6587;42.728;23.288;2022-12-01T02:27:16;0.60;;;0.60;;
13040;SDS011;6587;42.728;23.288;2022-12-01T02:29:59;0.50;;;0.50;;
13040;SDS011;6587;42.728;23.288;2022-12-01T02:32:32;0.60;;;0.60;;
13040;SDS011;6587;42.728;23.288;2022-12-01T02:35:12;0.70;;;0.70;;
13040;SDS011;6587;42.728;23.288;2022-12-01T02:37:43;0.50;;;0.50;;
13040;SDS011;6587;42.728;23.288;2022-12-01T02:40:17;0.53;;;0.53;;
13040;SDS011;6587;42.728;23.288;2022-12-01T02:42:51;0.60;;;0.60;;
13040;SDS011;6587;42.728;23.288;2022-12-01T02:45:30;0.63;;;0.60;;
13040;SDS011;6587;42.728;23.288;2022-12-01T02:48:05;0.50;;;0.50;;
13040;SDS011;6587;42.728;23.288;2022-12-01T02:50:37;0.60;;;0.60;;
13040;SDS011;6587;42.728;23.288;2022-12-01T02:53:06;0.67;;;0.67;;
13040;SDS011;6587;42.728;23.288;2022-12-01T02:55:35;0.53;;;0.53;;
13040;SDS011;6587;42.728;23.288;2022-12-01T02:58:11;0.63;;;0.63;;
13040;SDS011;6587;42.728;23.288;2022-12-01T03:00:39;0.57;;;0.57;;
13040;SDS011;6587;42.728;23.288;2022-12-01T03:03:28;0.60;;;0.60;;
13040;SDS011;6587;42.728;23.288;2022-12-01T03:06:06;0.63;;;0.63;;
13040;SDS011;6587;42.728;23.288;2022-12-01T03:08:42;0.73;;;0.73;;
13040;SDS011;6587;42.728;23.288;2022-12-01T03:11:17;0.70;;;0.70;;
13040;SDS011;6587;42.728;23.288;2022-12-01T03:13:56;0.80;;;0.80;;
13040;SDS011;6587;42.728;23.288;2022-12-01T03:16:35;1.53;;;1.00;;
13040;SDS011;6587;42.728;23.288;2022-12-01T03:19:15;0.70;;;0.70;;
13040;SDS011;6587;42.728;23.288;2022-12-01T03:21:51;0.70;;;0.70;;
13040;SDS011;6587;42.728;23.288;2022-12-01T03:24:24;1.17;;;0.90;;
13040;SDS011;6587;42.728;23.288;2022-12-01T03:26:57;0.60;;;0.60;;
13040;SDS011;6587;42.728;23.288;2022-12-01T03:29:29;0.60;;;0.60;;
13040;SDS011;6587;42.728;23.288;2022-12-01T03:31:59;0.70;;;0.70;;
13040;SDS011;6587;42.728;23.288;2022-12-01T03:34:33;1.33;;;0.70;;
13040;SDS011;6587;42.728;23.288;2022-12-01T03:37:06;1.00;;;0.80;;
13040;SDS011;6587;42.728;23.288;2022-12-01T03:39:37;1.27;;;1.17;;
13040;SDS011;6587;42.728;23.288;2022-12-01T03:42:07;0.60;;;0.60;;
13040;SDS011;6587;42.728;23.288;2022-12-01T03:44:41;0.60;;;0.60;;
13040;SDS011;6587;42.728;23.288;2022-12-01T03:47:18;0.60;;;0.60;;
13040;SDS011;6587;42.728;23.288;2022-12-01T03:49:49;2.43;;;1.00;;
13040;SDS011;6587;42.728;23.288;2022-12-01T03:52:19;1.40;;;0.90;;
13040;SDS011;6587;42.728;23.288;2022-12-01T03:54:59;0.70;;;0.70;;
13040;SDS011;6587;42.728;23.288;2022-12-01T03:57:35;0.90;;;0.90;;
13040;SDS011;6587;42.728;23.288;2022-12-01T04:00:08;0.97;;;0.80;;
13040;SDS011;6587;42.728;23.288;2022-12-01T04:02:39;0.80;;;0.80;;
13040;SDS011;6587;42.728;23.288;2022-12-01T04:05:08;0.77;;;0.77;;
13040;SDS011;6587;42.728;23.288;2022-12-01T04:07:35;1.47;;;0.90;;
13040;SDS011;6587;42.728;23.288;2022-12-01T04:10:02;0.70;;;0.70;;
13040;SDS011;6587;42.728;23.288;2022-12-01T04:12:30;0.67;;;0.67;;
13040;SDS011;6587;42.728;23.288;2022-12-01T04:14:58;0.90;;;0.70;;
13040;SDS011;6587;42.728;23.288;2022-12-01T04:17:26;0.80;;;0.80;;
13040;SDS011;6587;42.728;23.288;2022-12-01T04:19:53;0.97;;;0.80;;
13040;SDS011;6587;42.728;23.288;2022-12-01T04:22:22;1.43;;;0.80;;
13040;SDS011;6587;42.728;23.288;2022-12-01T04:24:50;1.77;;;1.27;;
13040;SDS011;6587;42.728;23.288;2022-12-01T04:27:18;0.93;;;0.80;;
13040;SDS011;6587;42.728;23.288;2022-12-01T04:29:45;1.17;;;1.07;;
13040;SDS011;6587;42.728;23.288;2022-12-01T04:32:12;1.57;;;1.20;;
13040;SDS011;6587;42.728;23.288;2022-12-01T04:34:39;1.80;;;0.97;;
13040;SDS011;6587;42.728;23.288;2022-12-01T04:37:07;0.80;;;0.80;;
13040;SDS011;6587;42.728;23.288;2022-12-01T04:39:35;0.80;;;0.80;;
13040;SDS011;6587;42.728;23.288;2022-12-01T04:42:02;2.30;;;0.80;;
13040;SDS011;6587;42.728;23.288;2022-12-01T04:44:30;0.80;;;0.80;;
13040;SDS011;6587;42.728;23.288;2022-12-01T04:46:57;0.90;;;0.90;;
13040;SDS011;6587;42.728;23.288;2022-12-01T04:49:24;2.50;;;1.30;;
13040;SDS011;6587;42.728;23.288;2022-12-01T04:51:51;1.00;;;0.90;;
13040;SDS011;6587;42.728;23.288;2022-12-01T04:54:18;0.97;;;0.93;;
13040;SDS011;6587;42.728;23.288;2022-12-01T04:56:46;1.50;;;1.10;;
13040;SDS011;6587;42.728;23.288;2022-12-01T04:59:13;0.90;;;0.90;;
13040;SDS011;6587;42.728;23.288;2022-12-01T05:01:40;1.17;;;1.00;;
13040;SDS011;6587;42.728;23.288;2022-12-01T05:04:09;2.87;;;0.77;;
13040;SDS011;6587;42.728;23.288;2022-12-01T05:06:37;1.43;;;1.10;;
13040;SDS011;6587;42.728;23.288;2022-12-01T05:09:05;3.37;;;1.00;;
13040;SDS011;6587;42.728;23.288;2022-12-01T05:11:32;1.03;;;0.93;;
13040;SDS011;6587;42.728;23.288;2022-12-01T05:14:01;2.03;;;1.30;;
13040;SDS011;6587;42.728;23.288;2022-12-01T05:16:28;1.23;;;1.00;;
13040;SDS011;6587;42.728;23.288;2022-12-01T05:18:57;2.97;;;2.00;;
13040;SDS011;6587;42.728;23.288;2022-12-01T05:21:44;1.37;;;1.00;;
13040;SDS011;6587;42.728;23.288;2022-12-01T05:24:12;1.90;;;0.93;;
13040;SDS011;6587;42.728;23.288;2022-12-01T05:26:40;1.20;;;0.97;;
13040;SDS011;6587;42.728;23.288;2022-12-01T05:29:09;1.20;;;1.10;;
13040;SDS011;6587;42.728;23.288;2022-12-01T05:31:37;1.53;;;1.40;;
13040;SDS011;6587;42.728;23.288;2022-12-01T05:34:04;1.03;;;0.93;;
13040;SDS011;6587;42.728;23.288;2022-12-01T05:36:31;4.47;;;1.07;;
13040;SDS011;6587;42.728;23.288;2022-12-01T05:38:58;1.90;;;1.80;;
13040;SDS011;6587;42.728;23.288;2022-12-01T05:41:25;1.20;;;1.10;;
13040;SDS011;6587;42.728;23.288;2022-12-01T05:43:52;1.53;;;1.23;;
13040;SDS011;6587;42.728;23.288;2022-12-01T05:46:20;3.73;;;2.50;;
13040;SDS011;6587;42.728;23.288;2022-12-01T05:48:47;1.17;;;1.00;;
13040;SDS011;6587;42.728;23.288;2022-12-01T05:51:14;1.37;;;1.00;;
13040;SDS011;6587;42.728;23.288;2022-12-01T05:53:42;3.83;;;1.13;;
13040;SDS011;6587;42.728;23.288;2022-12-01T05:56:09;5.40;;;1.30;;
13040;SDS011;6587;42.728;23.288;2022-12-01T05:58:36;2.10;;;1.00;;
13040;SDS011;6587;42.728;23.288;2022-12-01T06:01:03;4.17;;;1.90;;
13040;SDS011;6587;42.728;23.288;2022-12-01T06:03:32;5.93;;;1.40;;
13040;SDS011;6587;42.728;23.288;2022-12-01T06:05:59;1.70;;;1.30;;
13040;SDS011;6587;42.728;23.288;2022-12-01T06:08:26;2.37;;;1.60;;
13040;SDS011;6587;42.728;23.288;2022-12-01T06:10:53;3.30;;;1.60;;
13040;SDS011;6587;42.728;23.288;2022-12-01T06:13:21;3.17;;;2.13;;
13040;SDS011;6587;42.728;23.288;2022-12-01T06:15:56;4.10;;;2.13;;
13040;SDS011;6587;42.728;23.288;2022-12-01T06:18:24;9.67;;;2.00;;
13040;SDS011;6587;42.728;23.288;2022-12-01T06:20:53;1.83;;;1.43;;
13040;SDS011;6587;42.728;23.288;2022-12-01T06:23:19;3.80;;;1.37;;
13040;SDS011;6587;42.728;23.288;2022-12-01T06:25:46;2.33;;;1.20;;
13040;SDS011;6587;42.728;23.288;2022-12-01T06:28:13;3.07;;;1.73;;
13040;SDS011;6587;42.728;23.288;2022-12-01T06:30:41;2.43;;;1.40;;
13040;SDS011;6587;42.728;23.288;2022-12-01T06:33:08;1.97;;;1.63;;
13040;SDS011;6587;42.728;23.288;2022-12-01T06:35:35;2.80;;;1.30;;
13040;SDS011;6587;42.728;23.288;2022-12-01T06:38:04;2.17;;;1.30;;
13040;SDS011;6587;42.728;23.288;2022-12-01T06:40:31;3.70;;;1.77;;
13040;SDS011;6587;42.728;23.288;2022-12-01T06:42:58;3.40;;;2.10;;
13040;SDS011;6587;42.728;23.288;2022-12-01T06:45:26;3.13;;;1.70;;
13040;SDS011;6587;42.728;23.288;2022-12-01T06:47:53;2.23;;;1.50;;
13040;SDS011;6587;42.728;23.288;2022-12-01T06:50:20;3.00;;;1.20;;
13040;SDS011;6587;42.728;23.288;2022-12-01T06:52:47;2.47;;;1.10;;
13040;SDS011;6587;42.728;23.288;2022-12-01T06:55:16;2.03;;;1.43;;
13040;SDS011;6587;42.728;23.288;2022-12-01T06:57:43;1.93;;;1.20;;
13040;SDS011;6587;42.728;23.288;2022-12-01T07:00:10;1.47;;;1.10;;
13040;SDS011;6587;42.728;23.288;2022-12-01T07:02:38;2.93;;;1.60;;
13040;SDS011;6587;42.728;23.288;2022-12-01T07:05:05;2.43;;;1.53;;
13040;SDS011;6587;42.728;23.288;2022-12-01T07:07:34;1.40;;;1.23;;
13040;SDS011;6587;42.728;23.288;2022-12-01T07:10:01;2.07;;;1.70;;
13040;SDS011;6587;42.728;23.288;2022-12-01T07:12:30;1.93;;;1.43;;
13040;SDS011;6587;42.728;23.288;2022-12-01T07:14:57;1.60;;;1.43;;
13040;SDS011;6587;42.728;23.288;2022-12-01T07:17:24;2.73;;;1.77;;
13040;SDS011;6587;42.728;23.288;2022-12-01T07:19:51;4.40;;;2.80;;
13040;SDS011;6587;42.728;23.288;2022-12-01T07:22:18;2.17;;;1.70;;
13040;SDS011;6587;42.728;23.288;2022-12-01T07:24:45;2.43;;;2.00;;
13040;SDS011;6587;42.728;23.288;2022-12-01T07:27:12;1.87;;;1.40;;
13040;SDS011;6587;42.728;23.288;2022-12-01T07:29:40;2.83;;;2.50;;
13040;SDS011;6587;42.728;23.288;2022-12-01T07:32:07;1.90;;;1.70;;
13040;SDS011;6587;42.728;23.288;2022-12-01T07:34:33;1.40;;;1.30;;
13040;SDS011;6587;42.728;23.288;2022-12-01T07:37:00;2.20;;;1.30;;
13040;SDS011;6587;42.728;23.288;2022-12-01T07:39:27;1.20;;;1.10;;
13040;SDS011;6587;42.728;23.288;2022-12-01T07:41:54;1.70;;;1.60;;
13040;SDS011;6587;42.728;23.288;2022-12-01T07:44:21;3.40;;;2.17;;
13040;SDS011;6587;42.728;23.288;2022-12-01T07:46:49;2.03;;;1.67;;
13040;SDS011;6587;42.728;23.288;2022-12-01T07:49:16;1.90;;;1.40;;
13040;SDS011;6587;42.728;23.288;2022-12-01T07:51:43;2.27;;;1.40;;
13040;SDS011;6587;42.728;23.288;2022-12-01T07:54:10;3.73;;;2.00;;
13040;SDS011;6587;42.728;23.288;2022-12-01T07:56:38;3.67;;;1.93;;
13040;SDS011;6587;42.728;23.288;2022-12-01T07:59:05;2.30;;;2.10;;
13040;SDS011;6587;42.728;23.288;2022-12-01T08:01:32;2.60;;;2.07;;
13040;SDS011;6587;42.728;23.288;2022-12-01T08:04:01;3.90;;;1.90;;
13040;SDS011;6587;42.728;23.288;2022-12-01T08:06:27;4.03;;;2.17;;
13040;SDS011;6587;42.728;23.288;2022-12-01T08:08:54;2.07;;;1.70;;
13040;SDS011;6587;42.728;23.288;2022-12-01T08:11:23;2.90;;;2.10;;
13040;SDS011;6587;42.728;23.288;2022-12-01T08:13:53;2.30;;;2.00;;
13040;SDS011;6587;42.728;23.288;2022-12-01T08:16:21;1.90;;;1.70;;
13040;SDS011;6587;42.728;23.288;2022-12-01T08:18:53;2.73;;;1.43;;
13040;SDS011;6587;42.728;23.288;2022-12-01T08:21:22;2.17;;;1.83;;
13040;SDS011;6587;42.728;23.288;2022-12-01T08:23:51;2.90;;;1.77;;
13040;SDS011;6587;42.728;23.288;2022-12-01T08:26:19;2.80;;;1.60;;
13040;SDS011;6587;42.728;23.288;2022-12-01T08:28:47;1.47;;;1.30;;
13040;SDS011;6587;42.728;23.288;2022-12-01T08:31:15;1.40;;;1.20;;
13040;SDS011;6587;42.728;23.288;2022-12-01T08:33:43;1.90;;;1.63;;
13040;SDS011;6587;42.728;23.288;2022-12-01T08:36:11;1.23;;;1.13;;
13040;SDS011;6587;42.728;23.288;2022-12-01T08:38:41;2.30;;;1.63;;
13040;SDS011;6587;42.728;23.288;2022-12-01T08:41:08;2.27;;;1.43;;
13040;SDS011;6587;42.728;23.288;2022-12-01T08:43:36;1.97;;;1.67;;
13040;SDS011;6587;42.728;23.288;2022-12-01T08:46:04;2.70;;;1.50;;
13040;SDS011;6587;42.728;23.288;2022-12-01T08:48:32;2.23;;;1.60;;
13040;SDS011;6587;42.728;23.288;2022-12-01T08:51:05;2.87;;;1.60;;
13040;SDS011;6587;42.728;23.288;2022-12-01T08:53:34;1.90;;;1.57;;
13040;SDS011;6587;42.728;23.288;2022-12-01T08:56:04;2.40;;;1.70;;
13040;SDS011;6587;42.728;23.288;2022-12-01T08:58:32;2.17;;;1.90;;
13040;SDS011;6587;42.728;23.288;2022-12-01T09:01:00;4.37;;;1.87;;
13040;SDS011;6587;42.728;23.288;2022-12-01T09:03:28;4.00;;;1.90;;
13040;SDS011;6587;42.728;23.288;2022-12-01T09:06:00;2.43;;;2.10;;
13040;SDS011;6587;42.728;23.288;2022-12-01T09:08:27;2.40;;;2.17;;
13040;SDS011;6587;42.728;23.288;2022-12-01T09:10:59;2.50;;;2.23;;
13040;SDS011;6587;42.728;23.288;2022-12-01T09:13:28;1.90;;;1.70;;
13040;SDS011;6587;42.728;23.288;2022-12-01T09:15:56;1.87;;;1.70;;
13040;SDS011;6587;42.728;23.288;2022-12-01T09:18:24;2.80;;;2.00;;
13040;SDS011;6587;42.728;23.288;2022-12-01T09:20:51;1.80;;;1.50;;
13040;SDS011;6587;42.728;23.288;2022-12-01T09:23:19;3.57;;;2.80;;
13040;SDS011;6587;42.728;23.288;2022-12-01T09:25:46;1.77;;;1.67;;
13040;SDS011;6587;42.728;23.288;2022-12-01T09:28:13;3.47;;;2.03;;
13040;SDS011;6587;42.728;23.288;2022-12-01T09:30:43;4.30;;;1.83;;
13040;SDS011;6587;42.728;23.288;2022-12-01T09:33:10;1.97;;;1.67;;
13040;SDS011;6587;42.728;23.288;2022-12-01T09:35:37;3.97;;;1.90;;
13040;SDS011;6587;42.728;23.288;2022-12-01T09:38:04;2.90;;;1.50;;
13040;SDS011;6587;42.728;23.288;2022-12-01T09:40:33;2.97;;;2.20;;
13040;SDS011;6587;42.728;23.288;2022-12-01T09:43:02;2.77;;;1.80;;
13040;SDS011;6587;42.728;23.288;2022-12-01T09:45:33;1.93;;;1.70;;
13040;SDS011;6587;42.728;23.288;2022-12-01T09:48:06;2.50;;;2.20;;
13040;SDS011;6587;42.728;23.288;2022-12-01T09:50:41;4.97;;;2.80;;
13040;SDS011;6587;42.728;23.288;2022-12-01T09:53:11;3.93;;;2.40;;
13040;SDS011;6587;42.728;23.288;2022-12-01T09:55:43;4.23;;;2.30;;
13040;SDS011;6587;42.728;23.288;2022-12-01T09:58:12;3.70;;;2.27;;
13040;SDS011;6587;42.728;23.288;2022-12-01T10:00:42;3.00;;;1.90;;
13040;SDS011;6587;42.728;23.288;2022-12-01T10:03:16;2.60;;;1.80;;
13040;SDS011;6587;42.728;23.288;2022-12-01T10:05:53;1.50;;;1.33;;
13040;SDS011;6587;42.728;23.288;2022-12-01T10:08:24;2.50;;;1.30;;
13040;SDS011;6587;42.728;23.288;2022-12-01T10:10:55;1.10;;;1.10;;
13040;SDS011;6587;42.728;23.288;2022-12-01T10:13:26;1.70;;;1.20;;
13040;SDS011;6587;42.728;23.288;2022-12-01T10:15:56;1.47;;;1.10;;
13040;SDS011;6587;42.728;23.288;2022-12-01T10:18:38;1.60;;;1.10;;
13040;SDS011;6587;42.728;23.288;2022-12-01T10:21:18;1.27;;;1.20;;
13040;SDS011;6587;42.728;23.288;2022-12-01T10:23:59;2.50;;;1.67;;
13040;SDS011;6587;42.728;23.288;2022-12-01T10:26:34;1.20;;;1.10;;
13040;SDS011;6587;42.728;23.288;2022-12-01T10:29:12;3.13;;;1.30;;
13040;SDS011;6587;42.728;23.288;2022-12-01T10:31:45;2.50;;;1.80;;
13040;SDS011;6587;42.728;23.288;2022-12-01T10:34:20;7.80;;;7.10;;
13040;SDS011;6587;42.728;23.288;2022-12-01T10:36:49;3.33;;;1.90;;
13040;SDS011;6587;42.728;23.288;2022-12-01T10:39:18;2.80;;;1.83;;
13040;SDS011;6587;42.728;23.288;2022-12-01T10:41:52;1.40;;;1.30;;
13040;SDS011;6587;42.728;23.288;2022-12-01T10:44:27;1.87;;;1.30;;
13040;SDS011;6587;42.728;23.288;2022-12-01T10:46:55;1.70;;;1.40;;
13040;SDS011;6587;42.728;23.288;2022-12-01T10:49:33;1.97;;;1.50;;
13040;SDS011;6587;42.728;23.288;2022-12-01T10:52:01;3.50;;;2.00;;
13040;SDS011;6587;42.728;23.288;2022-12-01T10:54:32;3.23;;;2.20;;
13040;SDS011;6587;42.728;23.288;2022-12-01T10:57:04;3.27;;;1.87;;
13040;SDS011;6587;42.728;23.288;2022-12-01T10:59:33;2.30;;;1.67;;
13040;SDS011;6587;42.728;23.288;2022-12-01T11:02:04;1.77;;;1.67;;
13040;SDS011;6587;42.728;23.288;2022-12-01T11:04:42;1.93;;;1.57;;
13040;SDS011;6587;42.728;23.288;2022-12-01T11:07:16;2.37;;;1.57;;
13040;SDS011;6587;42.728;23.288;2022-12-01T11:09:46;1.50;;;1.27;;
13040;SDS011;6587;42.728;23.288;2022-12-01T11:12:24;5.90;;;1.77;;
13040;SDS011;6587;42.728;23.288;2022-12-01T11:14:51;3.40;;;1.93;;
13040;SDS011;6587;42.728;23.288;2022-12-01T11:17:31;2.30;;;1.60;;
13040;SDS011;6587;42.728;23.288;2022-12-01T11:25:37;1.77;;;1.40;;
13040;SDS011;6587;42.728;23.288;2022-12-01T11:28:04;2.43;;;1.50;;
13040;SDS011;6587;42.728;23.288;2022-12-01T11:30:31;3.17;;;1.20;;
13040;SDS011;6587;42.728;23.288;2022-12-01T11:32:58;2.30;;;1.70;;
13040;SDS011;6587;42.728;23.288;2022-12-01T11:35:26;2.93;;;1.70;;
13040;SDS011;6587;42.728;23.288;2022-12-01T11:37:55;2.27;;;1.50;;
13040;SDS011;6587;42.728;23.288;2022-12-01T11:40:23;2.37;;;1.90;;
13040;SDS011;6587;42.728;23.288;2022-12-01T11:42:52;3.77;;;2.60;;
13040;SDS011;6587;42.728;23.288;2022-12-01T11:45:23;2.10;;;1.57;;
13040;SDS011;6587;42.728;23.288;2022-12-01T11:47:59;1.60;;;1.40;;
13040;SDS011;6587;42.728;23.288;2022-12-01T11:50:26;1.67;;;1.50;;
13040;SDS011;6587;42.728;23.288;2022-12-01T11:52:54;3.17;;;1.70;;
13040;SDS011;6587;42.728;23.288;2022-12-01T11:55:21;2.10;;;1.57;;
13040;SDS011;6587;42.728;23.288;2022-12-01T11:57:49;2.50;;;1.57;;
13040;SDS011;6587;42.728;23.288;2022-12-01T12:00:19;1.67;;;1.37;;
13040;SDS011;6587;42.728;23.288;2022-12-01T12:02:50;1.47;;;1.37;;
13040;SDS011;6587;42.728;23.288;2022-12-01T12:08:11;1.77;;;1.50;;
13040;SDS011;6587;42.728;23.288;2022-12-01T12:10:46;1.33;;;1.23;;
13040;SDS011;6587;42.728;23.288;2022-12-01T12:13:25;2.57;;;1.33;;
13040;SDS011;6587;42.728;23.288;2022-12-01T12:15:56;1.93;;;1.63;;
13040;SDS011;6587;42.728;23.288;2022-12-01T12:18:33;3.47;;;1.50;;
13040;SDS011;6587;42.728;23.288;2022-12-01T12:21:04;1.60;;;1.50;;
13040;SDS011;6587;42.728;23.288;2022-12-01T12:23:41;1.50;;;1.40;;
13040;SDS011;6587;42.728;23.288;2022-12-01T12:26:13;1.53;;;1.27;;
13040;SDS011;6587;42.728;23.288;2022-12-01T12:28:51;2.03;;;1.20;;
13040;SDS011;6587;42.728;23.288;2022-12-01T12:31:26;1.13;;;1.00;;
13040;SDS011;6587;42.728;23.288;2022-12-01T12:33:59;1.47;;;1.30;;
13040;SDS011;6587;42.728;23.288;2022-12-01T12:36:31;2.10;;;1.83;;
13040;SDS011;6587;42.728;23.288;2022-12-01T12:39:02;1.87;;;1.30;;
13040;SDS011;6587;42.728;23.288;2022-12-01T12:41:33;3.47;;;1.97;;
13040;SDS011;6587;42.728;23.288;2022-12-01T12:44:08;2.90;;;2.23;;
13040;SDS011;6587;42.728;23.288;2022-12-01T12:46:49;1.47;;;1.30;;
13040;SDS011;6587;42.728;23.288;2022-12-01T12:49:25;1.60;;;1.50;;
13040;SDS011;6587;42.728;23.288;2022-12-01T12:51:53;3.13;;;1.57;;
13040;SDS011;6587;42.728;23.288;2022-12-01T12:54:23;2.57;;;1.87;;
13040;SDS011;6587;42.728;23.288;2022-12-01T12:56:53;2.23;;;1.80;;
13040;SDS011;6587;42.728;23.288;2022-12-01T12:59:21;2.80;;;1.77;;
13040;SDS011;6587;42.728;23.288;2022-12-01T13:01:53;2.13;;;1.30;;
13040;SDS011;6587;42.728;23.288;2022-12-01T13:04:21;2.60;;;1.83;;
13040;SDS011;6587;42.728;23.288;2022-12-01T13:06:49;2.47;;;1.87;;
13040;SDS011;6587;42.728;23.288;2022-12-01T13:09:19;2.10;;;1.70;;
13040;SDS011;6587;42.728;23.288;2022-12-01T13:11:48;2.50;;;1.70;;
13040;SDS011;6587;42.728;23.288;2022-12-01T13:14:17;1.40;;;1.30;;
13040;SDS011;6587;42.728;23.288;2022-12-01T13:16:46;1.73;;;1.63;;
13040;SDS011;6587;42.728;23.288;2022-12-01T13:19:15;2.43;;;1.60;;
13040;SDS011;6587;42.728;23.288;2022-12-01T13:21:44;1.93;;;1.50;;
13040;SDS011;6587;42.728;23.288;2022-12-01T13:24:11;1.70;;;1.60;;
13040;SDS011;6587;42.728;23.288;2022-12-01T13:26:38;1.80;;;1.20;;
13040;SDS011;6587;42.728;23.288;2022-12-01T13:29:05;1.50;;;1.40;;
13040;SDS011;6587;42.728;23.288;2022-12-01T13:31:40;1.40;;;1.30;;
13040;SDS011;6587;42.728;23.288;2022-12-01T13:34:06;1.57;;;1.20;;
13040;SDS011;6587;42.728;23.288;2022-12-01T13:36:34;1.37;;;1.20;;
13040;SDS011;6587;42.728;23.288;2022-12-01T13:39:03;1.60;;;1.10;;
13040;SDS011;6587;42.728;23.288;2022-12-01T13:41:31;1.27;;;1.17;;
13040;SDS011;6587;42.728;23.288;2022-12-01T13:43:59;1.20;;;1.10;;
13040;SDS011;6587;42.728;23.288;2022-12-01T13:46:29;2.40;;;1.10;;
13040;SDS011;6587;42.728;23.288;2022-12-01T13:48:56;2.47;;;1.43;;
13040;SDS011;6587;42.728;23.288;2022-12-01T13:51:23;1.13;;;1.03;;
13040;SDS011;6587;42.728;23.288;2022-12-01T13:54:02;2.30;;;1.50;;
13040;SDS011;6587;42.728;23.288;2022-12-01T13:56:36;1.87;;;1.50;;
13040;SDS011;6587;42.728;23.288;2022-12-01T13:59:35;2.87;;;2.10;;
13040;SDS011;6587;42.728;23.288;2022-12-01T14:02:05;3.97;;;2.87;;
13040;SDS011;6587;42.728;23.288;2022-12-01T14:04:31;2.47;;;1.77;;
13040;SDS011;6587;42.728;23.288;2022-12-01T14:09:57;2.20;;;1.60;;
13040;SDS011;6587;42.728;23.288;2022-12-01T14:12:32;2.00;;;1.50;;
13040;SDS011;6587;42.728;23.288;2022-12-01T14:15:03;1.30;;;1.20;;
13040;SDS011;6587;42.728;23.288;2022-12-01T14:17:31;1.40;;;1.30;;
13040;SDS011;6587;42.728;23.288;2022-12-01T14:20:03;1.47;;;1.37;;
13040;SDS011;6587;42.728;23.288;2022-12-01T14:22:33;1.90;;;1.80;;
13040;SDS011;6587;42.728;23.288;2022-12-01T14:25:02;2.63;;;1.67;;
13040;SDS011;6587;42.728;23.288;2022-12-01T14:27:34;1.40;;;1.30;;
13040;SDS011;6587;42.728;23.288;2022-12-01T14:32:46;2.07;;;1.30;;
13040;SDS011;6587;42.728;23.288;2022-12-01T14:35:13;2.03;;;1.40;;
13040;SDS011;6587;42.728;23.288;2022-12-01T14:37:44;2.20;;;2.10;;
13040;SDS011;6587;42.728;23.288;2022-12-01T14:40:18;1.40;;;1.30;;
13040;SDS011;6587;42.728;23.288;2022-12-01T14:42:47;0.93;;;0.93;;
13040;SDS011;6587;42.728;23.288;2022-12-01T14:45:34;1.87;;;1.60;;
13040;SDS011;6587;42.728;23.288;2022-12-01T14:48:08;1.57;;;1.47;;
13040;SDS011;6587;42.728;23.288;2022-12-01T14:50:36;2.40;;;1.97;;
13040;SDS011;6587;42.728;23.288;2022-12-01T14:53:07;7.60;;;4.30;;
13040;SDS011;6587;42.728;23.288;2022-12-01T14:55:36;2.87;;;1.97;;
13040;SDS011;6587;42.728;23.288;2022-12-01T14:58:04;3.50;;;2.23;;
13040;SDS011;6587;42.728;23.288;2022-12-01T15:00:32;4.00;;;2.27;;
13040;SDS011;6587;42.728;23.288;2022-12-01T15:03:00;4.30;;;2.57;;
13040;SDS011;6587;42.728;23.288;2022-12-01T15:05:28;2.53;;;2.30;;
13040;SDS011;6587;42.728;23.288;2022-12-01T15:07:55;2.30;;;2.10;;
13040;SDS011;6587;42.728;23.288;2022-12-01T15:10:23;2.63;;;2.30;;
13040;SDS011;6587;42.728;23.288;2022-12-01T15:12:52;2.67;;;2.30;;
13040;SDS011;6587;42.728;23.288;2022-12-01T15:15:19;4.13;;;2.60;;
13040;SDS011;6587;42.728;23.288;2022-12-01T15:17:46;4.40;;;2.70;;
13040;SDS011;6587;42.728;23.288;2022-12-01T15:20:26;3.33;;;2.73;;
13040;SDS011;6587;42.728;23.288;2022-12-01T15:22:53;3.67;;;2.57;;